sensor_id;sensor_type;location;lat;lon;timestamp;pressure;altitude;pressure_sealevel;temperature;humidity
8298;BME280;4187;42.778;23.242;2022-08-16T00:02:23;94853.66;;;18.91;100.00
8298;BME280;4187;42.778;23.242;2022-08-16T00:04:50;94827.31;;;18.69;100.00
8298;BME280;4187;42.778;23.242;2022-08-16T00:07:17;94852.63;;;18.79;100.00
8298;BME280;4187;42.778;23.242;2022-08-16T00:09:44;94857.56;;;18.82;100.00
8298;BME280;4187;42.778;23.242;2022-08-16T00:12:11;94859.63;;;18.87;100.00
8298;BME280;4187;42.778;23.242;2022-08-16T00:14:38;94827.94;;;18.77;100.00
8298;BME280;4187;42.778;23.242;2022-08-16T00:17:05;94845.81;;;18.90;100.00
8298;BME280;4187;42.778;23.242;2022-08-16T00:19:34;94818.06;;;18.71;100.00
8298;BME280;4187;42.778;23.242;2022-08-16T00:22:01;94850.16;;;18.91;100.00
8298;BME280;4187;42.778;23.242;2022-08-16T00:24:28;94838.84;;;18.82;100.00
8298;BME280;4187;42.778;23.242;2022-08-16T00:26:56;94838.84;;;18.89;100.00
8298;BME280;4187;42.778;23.242;2022-08-16T00:29:22;94855.06;;;19.00;100.00
8298;BME280;4187;42.778;23.242;2022-08-16T00:31:50;94847.28;;;18.99;100.00
8298;BME280;4187;42.778;23.242;2022-08-16T00:34:18;94855.94;;;18.94;100.00
8298;BME280;4187;42.778;23.242;2022-08-16T00:36:48;94846.03;;;18.88;100.00
8298;BME280;4187;42.778;23.242;2022-08-16T00:39:17;94865.97;;;18.92;100.00
8298;BME280;4187;42.778;23.242;2022-08-16T00:41:46;94868.25;;;18.95;100.00
8298;BME280;4187;42.778;23.242;2022-08-16T00:44:14;94839.66;;;18.70;100.00
8298;BME280;4187;42.778;23.242;2022-08-16T00:46:47;94867.84;;;18.79;100.00
8298;BME280;4187;42.778;23.242;2022-08-16T00:49:16;94874.81;;;18.80;100.00
8298;BME280;4187;42.778;23.242;2022-08-16T00:51:43;94857.97;;;18.66;100.00
8298;BME280;4187;42.778;23.242;2022-08-16T00:54:11;94883.88;;;18.72;100.00
8298;BME280;4187;42.778;23.242;2022-08-16T00:56:42;94884.69;;;18.66;100.00
8298;BME280;4187;42.778;23.242;2022-08-16T00:59:10;94894.34;;;18.61;100.00
8298;BME280;4187;42.778;23.242;2022-08-16T01:01:40;94894.91;;;18.43;100.00
8298;BME280;4187;42.778;23.242;2022-08-16T01:04:07;94893.44;;;18.27;100.00
8298;BME280;4187;42.778;23.242;2022-08-16T01:06:35;94895.41;;;18.06;100.00
8298;BME280;4187;42.778;23.242;2022-08-16T01:09:04;94896.38;;;17.98;100.00
8298;BME280;4187;42.778;23.242;2022-08-16T01:11:36;94906.84;;;17.93;100.00
8298;BME280;4187;42.778;23.242;2022-08-16T01:14:08;94898.22;;;17.91;100.00
8298;BME280;4187;42.778;23.242;2022-08-16T01:16:37;94866.91;;;17.72;100.00
8298;BME280;4187;42.778;23.242;2022-08-16T01:19:10;94902.31;;;17.93;100.00
8298;BME280;4187;42.778;23.242;2022-08-16T01:21:46;94907.28;;;18.03;100.00
8298;BME280;4187;42.778;23.242;2022-08-16T01:24:20;94907.50;;;18.02;100.00
8298;BME280;4187;42.778;23.242;2022-08-16T01:26:50;94907.09;;;18.05;100.00
8298;BME280;4187;42.778;23.242;2022-08-16T01:29:23;94906.25;;;17.98;100.00
8298;BME280;4187;42.778;23.242;2022-08-16T01:31:51;94915.84;;;17.85;100.00
8298;BME280;4187;42.778;23.242;2022-08-16T01:34:18;94909.66;;;17.78;100.00
8298;BME280;4187;42.778;23.242;2022-08-16T01:36:46;94877.59;;;17.44;100.00
8298;BME280;4187;42.778;23.242;2022-08-16T01:39:14;94910.59;;;17.64;100.00
8298;BME280;4187;42.778;23.242;2022-08-16T01:41:43;94908.59;;;17.73;100.00
8298;BME280;4187;42.778;23.242;2022-08-16T01:44:10;94915.56;;;17.74;100.00
8298;BME280;4187;42.778;23.242;2022-08-16T01:46:39;94837.88;;;17.21;100.00
8298;BME280;4187;42.778;23.242;2022-08-16T01:49:09;94925.41;;;17.67;100.00
8298;BME280;4187;42.778;23.242;2022-08-16T01:51:38;94928.06;;;17.67;100.00
8298;BME280;4187;42.778;23.242;2022-08-16T01:54:05;94925.41;;;17.73;100.00
8298;BME280;4187;42.778;23.242;2022-08-16T01:56:33;94934.09;;;17.82;100.00
8298;BME280;4187;42.778;23.242;2022-08-16T01:59:04;94940.47;;;17.87;100.00
8298;BME280;4187;42.778;23.242;2022-08-16T02:01:31;94958.38;;;17.93;100.00
8298;BME280;4187;42.778;23.242;2022-08-16T02:03:58;94955.72;;;17.93;100.00
8298;BME280;4187;42.778;23.242;2022-08-16T02:06:27;94964.72;;;17.86;100.00
8298;BME280;4187;42.778;23.242;2022-08-16T02:08:54;94965.16;;;17.89;100.00
8298;BME280;4187;42.778;23.242;2022-08-16T02:11:22;94962.88;;;17.86;100.00
8298;BME280;4187;42.778;23.242;2022-08-16T02:13:49;94916.78;;;17.65;100.00
8298;BME280;4187;42.778;23.242;2022-08-16T02:16:18;94959.44;;;17.99;100.00
8298;BME280;4187;42.778;23.242;2022-08-16T02:18:46;94958.00;;;18.03;100.00
8298;BME280;4187;42.778;23.242;2022-08-16T02:21:14;94958.38;;;17.93;100.00
8298;BME280;4187;42.778;23.242;2022-08-16T02:23:41;94946.22;;;17.84;100.00
8298;BME280;4187;42.778;23.242;2022-08-16T02:26:08;94949.75;;;17.91;100.00
8298;BME280;4187;42.778;23.242;2022-08-16T02:28:35;94948.97;;;17.98;100.00
8298;BME280;4187;42.778;23.242;2022-08-16T02:31:04;94949.03;;;18.11;100.00
8298;BME280;4187;42.778;23.242;2022-08-16T02:33:33;94957.28;;;18.16;100.00
8298;BME280;4187;42.778;23.242;2022-08-16T02:36:00;94948.22;;;18.10;100.00
8298;BME280;4187;42.778;23.242;2022-08-16T02:38:28;94944.09;;;18.14;100.00
8298;BME280;4187;42.778;23.242;2022-08-16T02:40:56;94944.72;;;18.10;100.00
8298;BME280;4187;42.778;23.242;2022-08-16T02:43:24;94956.06;;;18.25;100.00
8298;BME280;4187;42.778;23.242;2022-08-16T02:45:51;94958.56;;;18.33;100.00
8298;BME280;4187;42.778;23.242;2022-08-16T02:48:18;94961.03;;;18.34;100.00
8298;BME280;4187;42.778;23.242;2022-08-16T02:50:47;94943.94;;;18.22;100.00
8298;BME280;4187;42.778;23.242;2022-08-16T02:53:14;94956.94;;;18.32;100.00
8298;BME280;4187;42.778;23.242;2022-08-16T02:55:41;94950.97;;;18.30;100.00
8298;BME280;4187;42.778;23.242;2022-08-16T02:58:08;94952.03;;;18.35;100.00
8298;BME280;4187;42.778;23.242;2022-08-16T03:00:36;94954.50;;;18.43;100.00
8298;BME280;4187;42.778;23.242;2022-08-16T03:03:03;94952.84;;;18.42;100.00
8298;BME280;4187;42.778;23.242;2022-08-16T03:05:31;94880.84;;;18.08;100.00
8298;BME280;4187;42.778;23.242;2022-08-16T03:07:59;94939.13;;;18.52;100.00
8298;BME280;4187;42.778;23.242;2022-08-16T03:10:26;94941.84;;;18.59;100.00
8298;BME280;4187;42.778;23.242;2022-08-16T03:12:53;94941.00;;;18.58;100.00
8298;BME280;4187;42.778;23.242;2022-08-16T03:15:20;94940.78;;;18.53;100.00
8298;BME280;4187;42.778;23.242;2022-08-16T03:17:47;94932.16;;;18.51;100.00
8298;BME280;4187;42.778;23.242;2022-08-16T03:20:15;94939.78;;;18.61;100.00
8298;BME280;4187;42.778;23.242;2022-08-16T03:22:42;94932.97;;;18.58;100.00
8298;BME280;4187;42.778;23.242;2022-08-16T03:25:13;94941.84;;;18.59;100.00
8298;BME280;4187;42.778;23.242;2022-08-16T03:27:40;94939.38;;;18.57;100.00
8298;BME280;4187;42.778;23.242;2022-08-16T03:30:12;94941.00;;;18.58;100.00
8298;BME280;4187;42.778;23.242;2022-08-16T03:32:39;94942.66;;;18.66;100.00
8298;BME280;4187;42.778;23.242;2022-08-16T03:35:07;94947.41;;;18.70;100.00
8298;BME280;4187;42.778;23.242;2022-08-16T03:37:35;94944.13;;;18.75;100.00
8298;BME280;4187;42.778;23.242;2022-08-16T03:40:03;94948.84;;;18.79;100.00
8298;BME280;4187;42.778;23.242;2022-08-16T03:42:31;94954.84;;;18.81;100.00
8298;BME280;4187;42.778;23.242;2022-08-16T03:44:58;94953.00;;;18.88;100.00
8298;BME280;4187;42.778;23.242;2022-08-16T03:47:25;94957.94;;;18.91;100.00
8298;BME280;4187;42.778;23.242;2022-08-16T03:49:54;94950.13;;;18.96;100.00
8298;BME280;4187;42.778;23.242;2022-08-16T03:52:22;94952.81;;;18.96;100.00
8298;BME280;4187;42.778;23.242;2022-08-16T03:54:50;94951.75;;;18.91;100.00
8298;BME280;4187;42.778;23.242;2022-08-16T03:57:18;94955.44;;;18.90;100.00
8298;BME280;4187;42.778;23.242;2022-08-16T03:59:46;94946.41;;;18.91;100.00
8298;BME280;4187;42.778;23.242;2022-08-16T04:02:13;94949.50;;;18.94;100.00
8298;BME280;4187;42.778;23.242;2022-08-16T04:04:43;94945.78;;;18.95;100.00
8298;BME280;4187;42.778;23.242;2022-08-16T04:07:11;94946.41;;;18.91;100.00
8298;BME280;4187;42.778;23.242;2022-08-16T04:09:38;94924.41;;;18.76;100.00
8298;BME280;4187;42.778;23.242;2022-08-16T04:12:05;94934.03;;;18.77;100.00
8298;BME280;4187;42.778;23.242;2022-08-16T04:14:33;94949.72;;;18.86;100.00
8298;BME280;4187;42.778;23.242;2022-08-16T04:17:01;94959.75;;;18.84;100.00
8298;BME280;4187;42.778;23.242;2022-08-16T04:19:28;94948.66;;;18.87;100.00
8298;BME280;4187;42.778;23.242;2022-08-16T04:21:55;94943.97;;;18.89;100.00
8298;BME280;4187;42.778;23.242;2022-08-16T04:24:22;94931.19;;;18.91;100.00
8298;BME280;4187;42.778;23.242;2022-08-16T04:26:49;94916.38;;;18.82;100.00
8298;BME280;4187;42.778;23.242;2022-08-16T04:29:16;94953.81;;;18.95;100.00
8298;BME280;4187;42.778;23.242;2022-08-16T04:31:42;94955.69;;;19.01;100.00
8298;BME280;4187;42.778;23.242;2022-08-16T04:34:11;94925.63;;;18.93;100.00
8298;BME280;4187;42.778;23.242;2022-08-16T04:36:38;94939.63;;;19.01;100.00
8298;BME280;4187;42.778;23.242;2022-08-16T04:39:05;94954.66;;;19.16;100.00
8298;BME280;4187;42.778;23.242;2022-08-16T04:41:32;94942.31;;;19.08;100.00
8298;BME280;4187;42.778;23.242;2022-08-16T04:43:59;94959.63;;;19.19;100.00
8298;BME280;4187;42.778;23.242;2022-08-16T04:46:26;94956.13;;;19.25;100.00
8298;BME280;4187;42.778;23.242;2022-08-16T04:48:53;94959.22;;;19.35;100.00
8298;BME280;4187;42.778;23.242;2022-08-16T04:51:22;94956.75;;;19.40;100.00
8298;BME280;4187;42.778;23.242;2022-08-16T04:53:49;94946.06;;;19.46;100.00
8298;BME280;4187;42.778;23.242;2022-08-16T04:56:17;94933.28;;;19.48;100.00
8298;BME280;4187;42.778;23.242;2022-08-16T04:58:44;94917.84;;;19.44;100.00
8298;BME280;4187;42.778;23.242;2022-08-16T05:01:11;94943.34;;;19.66;100.00
8298;BME280;4187;42.778;23.242;2022-08-16T05:03:38;94943.16;;;19.61;100.00
8298;BME280;4187;42.778;23.242;2022-08-16T05:06:05;94944.97;;;19.74;100.00
8298;BME280;4187;42.778;23.242;2022-08-16T05:08:33;94920.50;;;19.63;100.00
8298;BME280;4187;42.778;23.242;2022-08-16T05:11:03;94949.28;;;19.88;100.00
8298;BME280;4187;42.778;23.242;2022-08-16T05:13:30;94954.81;;;19.99;100.00
8298;BME280;4187;42.778;23.242;2022-08-16T05:15:57;94949.22;;;20.01;100.00
8298;BME280;4187;42.778;23.242;2022-08-16T05:18:24;94966.09;;;20.21;100.00
8298;BME280;4187;42.778;23.242;2022-08-16T05:20:51;94973.50;;;20.32;100.00
8298;BME280;4187;42.778;23.242;2022-08-16T05:23:18;94979.63;;;20.46;100.00
8298;BME280;4187;42.778;23.242;2022-08-16T05:25:47;94977.13;;;20.51;100.00
8298;BME280;4187;42.778;23.242;2022-08-16T05:28:13;94968.19;;;20.63;100.00
8298;BME280;4187;42.778;23.242;2022-08-16T05:30:40;94967.53;;;20.74;100.00
8298;BME280;4187;42.778;23.242;2022-08-16T05:33:07;94974.50;;;20.82;100.00
8298;BME280;4187;42.778;23.242;2022-08-16T05:35:34;94943.56;;;20.79;100.00
8298;BME280;4187;42.778;23.242;2022-08-16T05:38:01;94958.88;;;21.04;100.00
8298;BME280;4187;42.778;23.242;2022-08-16T05:40:28;94944.28;;;21.00;100.00
8298;BME280;4187;42.778;23.242;2022-08-16T05:42:56;94970.94;;;21.26;100.00
8298;BME280;4187;42.778;23.242;2022-08-16T05:45:23;94969.06;;;21.33;100.00
8298;BME280;4187;42.778;23.242;2022-08-16T05:47:50;94985.69;;;21.41;100.00
8298;BME280;4187;42.778;23.242;2022-08-16T05:50:18;94948.03;;;21.23;100.00
8298;BME280;4187;42.778;23.242;2022-08-16T05:52:44;94970.72;;;21.52;100.00
8298;BME280;4187;42.778;23.242;2022-08-16T05:55:11;94974.94;;;21.66;100.00
8298;BME280;4187;42.778;23.242;2022-08-16T05:57:38;94964.16;;;21.73;100.00
8298;BME280;4187;42.778;23.242;2022-08-16T06:00:09;94931.63;;;21.63;100.00
8298;BME280;4187;42.778;23.242;2022-08-16T06:02:38;94978.78;;;22.01;100.00
8298;BME280;4187;42.778;23.242;2022-08-16T06:05:05;94935.47;;;21.91;100.00
8298;BME280;4187;42.778;23.242;2022-08-16T06:07:32;94977.44;;;22.29;100.00
8298;BME280;4187;42.778;23.242;2022-08-16T06:09:59;94977.38;;;22.35;100.00
8298;BME280;4187;42.778;23.242;2022-08-16T06:12:27;94977.38;;;22.53;100.00
8298;BME280;4187;42.778;23.242;2022-08-16T06:14:55;94950.41;;;22.42;100.00
8298;BME280;4187;42.778;23.242;2022-08-16T06:17:24;94984.91;;;22.81;100.00
8298;BME280;4187;42.778;23.242;2022-08-16T06:19:51;94986.53;;;23.00;100.00
8298;BME280;4187;42.778;23.242;2022-08-16T06:22:18;94979.09;;;23.14;100.00
8298;BME280;4187;42.778;23.242;2022-08-16T06:24:44;94971.47;;;23.22;100.00
8298;BME280;4187;42.778;23.242;2022-08-16T06:27:11;94971.50;;;23.34;100.00
8298;BME280;4187;42.778;23.242;2022-08-16T06:29:38;94978.50;;;23.53;100.00
8298;BME280;4187;42.778;23.242;2022-08-16T06:32:05;94976.16;;;23.68;100.00
8298;BME280;4187;42.778;23.242;2022-08-16T06:34:34;94977.59;;;23.83;100.00
8298;BME280;4187;42.778;23.242;2022-08-16T06:37:00;94954.25;;;23.76;100.00
8298;BME280;4187;42.778;23.242;2022-08-16T06:39:28;94963.66;;;23.97;100.00
8298;BME280;4187;42.778;23.242;2022-08-16T06:41:55;94978.91;;;24.15;100.00
8298;BME280;4187;42.778;23.242;2022-08-16T06:44:22;94977.50;;;24.24;100.00
8298;BME280;4187;42.778;23.242;2022-08-16T06:46:49;94959.56;;;24.29;100.00
8298;BME280;4187;42.778;23.242;2022-08-16T06:49:16;94976.75;;;24.52;100.00
8298;BME280;4187;42.778;23.242;2022-08-16T06:51:44;94977.88;;;24.67;100.00
8298;BME280;4187;42.778;23.242;2022-08-16T06:54:11;94970.81;;;24.78;100.00
8298;BME280;4187;42.778;23.242;2022-08-16T06:56:38;94959.66;;;24.86;100.00
8298;BME280;4187;42.778;23.242;2022-08-16T06:59:05;94955.28;;;24.96;100.00
8298;BME280;4187;42.778;23.242;2022-08-16T07:01:32;94962.69;;;25.18;100.00
8298;BME280;4187;42.778;23.242;2022-08-16T07:03:59;94920.56;;;25.17;100.00
8298;BME280;4187;42.778;23.242;2022-08-16T07:06:25;94955.31;;;25.58;100.00
8298;BME280;4187;42.778;23.242;2022-08-16T07:08:54;94941.88;;;25.63;100.00
8298;BME280;4187;42.778;23.242;2022-08-16T07:11:21;94940.25;;;25.79;100.00
8298;BME280;4187;42.778;23.242;2022-08-16T07:13:48;94943.44;;;25.92;100.00
8298;BME280;4187;42.778;23.242;2022-08-16T07:16:15;94942.81;;;26.07;100.00
8298;BME280;4187;42.778;23.242;2022-08-16T07:18:42;94923.16;;;26.11;100.00
8298;BME280;4187;42.778;23.242;2022-08-16T07:21:09;94935.44;;;26.36;91.05
8298;BME280;4187;42.778;23.242;2022-08-16T07:23:37;94932.16;;;26.55;88.81
8298;BME280;4187;42.778;23.242;2022-08-16T07:26:08;94923.78;;;26.57;86.57
8298;BME280;4187;42.778;23.242;2022-08-16T07:28:36;94925.56;;;26.68;86.75
8298;BME280;4187;42.778;23.242;2022-08-16T07:31:03;94933.22;;;26.76;86.42
8298;BME280;4187;42.778;23.242;2022-08-16T07:33:33;94915.25;;;26.87;86.35
8298;BME280;4187;42.778;23.242;2022-08-16T07:36:02;94931.22;;;27.15;86.56
8298;BME280;4187;42.778;23.242;2022-08-16T07:38:29;94938.19;;;27.33;86.01
8298;BME280;4187;42.778;23.242;2022-08-16T07:40:56;94933.25;;;27.51;84.17
8298;BME280;4187;42.778;23.242;2022-08-16T07:43:25;94937.94;;;27.66;84.46
8298;BME280;4187;42.778;23.242;2022-08-16T07:45:52;94938.34;;;27.79;80.89
8298;BME280;4187;42.778;23.242;2022-08-16T07:48:19;94933.22;;;27.83;82.90
8298;BME280;4187;42.778;23.242;2022-08-16T07:50:46;94930.91;;;28.02;80.51
8298;BME280;4187;42.778;23.242;2022-08-16T07:53:13;94911.03;;;27.91;79.91
8298;BME280;4187;42.778;23.242;2022-08-16T07:55:40;94940.28;;;28.21;80.21
8298;BME280;4187;42.778;23.242;2022-08-16T07:58:07;94931.94;;;28.32;79.89
8298;BME280;4187;42.778;23.242;2022-08-16T08:00:36;94887.50;;;28.02;79.48
8298;BME280;4187;42.778;23.242;2022-08-16T08:03:04;94943.66;;;28.38;79.94
8298;BME280;4187;42.778;23.242;2022-08-16T08:05:31;94899.28;;;28.17;78.69
8298;BME280;4187;42.778;23.242;2022-08-16T08:07:58;94948.69;;;28.66;76.46
8298;BME280;4187;42.778;23.242;2022-08-16T08:10:25;94948.19;;;28.79;77.63
8298;BME280;4187;42.778;23.242;2022-08-16T08:12:53;94943.88;;;28.83;75.89
8298;BME280;4187;42.778;23.242;2022-08-16T08:15:22;94950.16;;;28.89;76.12
8298;BME280;4187;42.778;23.242;2022-08-16T08:17:51;94944.19;;;28.92;76.69
8298;BME280;4187;42.778;23.242;2022-08-16T08:20:20;94941.50;;;29.02;78.04
8298;BME280;4187;42.778;23.242;2022-08-16T08:22:48;94944.00;;;29.14;78.33
8298;BME280;4187;42.778;23.242;2022-08-16T08:25:15;94937.72;;;29.08;75.89
8298;BME280;4187;42.778;23.242;2022-08-16T08:27:42;94932.09;;;29.25;71.39
8298;BME280;4187;42.778;23.242;2022-08-16T08:30:10;94933.72;;;29.31;73.67
8298;BME280;4187;42.778;23.242;2022-08-16T08:32:37;94916.59;;;29.30;74.28
8298;BME280;4187;42.778;23.242;2022-08-16T08:35:07;94924.75;;;29.40;70.45
8298;BME280;4187;42.778;23.242;2022-08-16T08:37:36;94948.97;;;29.52;72.11
8298;BME280;4187;42.778;23.242;2022-08-16T08:40:05;94946.53;;;29.55;70.44
8298;BME280;4187;42.778;23.242;2022-08-16T08:42:32;94945.72;;;29.70;69.27
8298;BME280;4187;42.778;23.242;2022-08-16T08:44:59;94953.06;;;29.75;70.61
8298;BME280;4187;42.778;23.242;2022-08-16T08:47:28;94946.31;;;29.87;72.90
8298;BME280;4187;42.778;23.242;2022-08-16T08:49:55;94931.59;;;29.88;71.32
8298;BME280;4187;42.778;23.242;2022-08-16T08:52:25;94948.72;;;29.99;70.86
8298;BME280;4187;42.778;23.242;2022-08-16T08:54:52;94940.56;;;30.04;72.81
8298;BME280;4187;42.778;23.242;2022-08-16T08:57:22;94946.00;;;30.04;71.06
8298;BME280;4187;42.778;23.242;2022-08-16T08:59:48;94945.72;;;30.20;71.21
8298;BME280;4187;42.778;23.242;2022-08-16T09:02:16;94942.16;;;30.35;69.89
8298;BME280;4187;42.778;23.242;2022-08-16T09:04:43;94933.72;;;30.47;72.12
8298;BME280;4187;42.778;23.242;2022-08-16T09:07:11;94951.88;;;30.76;70.20
8298;BME280;4187;42.778;23.242;2022-08-16T09:09:39;94933.34;;;30.73;70.30
8298;BME280;4187;42.778;23.242;2022-08-16T09:12:07;94917.25;;;30.77;68.12
8298;BME280;4187;42.778;23.242;2022-08-16T09:14:34;94935.72;;;31.00;66.65
8298;BME280;4187;42.778;23.242;2022-08-16T09:17:03;94960.94;;;31.21;67.77
8298;BME280;4187;42.778;23.242;2022-08-16T09:19:31;94892.69;;;30.87;65.62
8298;BME280;4187;42.778;23.242;2022-08-16T09:21:58;94950.91;;;31.16;64.45
8298;BME280;4187;42.778;23.242;2022-08-16T09:24:24;94952.63;;;30.97;64.57
8298;BME280;4187;42.778;23.242;2022-08-16T09:26:53;94926.88;;;30.59;67.03
8298;BME280;4187;42.778;23.242;2022-08-16T09:29:20;94947.00;;;30.68;66.03
8298;BME280;4187;42.778;23.242;2022-08-16T09:31:47;94956.28;;;30.52;64.60
8298;BME280;4187;42.778;23.242;2022-08-16T09:34:14;94927.78;;;30.19;66.09
8298;BME280;4187;42.778;23.242;2022-08-16T09:36:45;94937.78;;;30.34;66.46
8298;BME280;4187;42.778;23.242;2022-08-16T09:39:12;94949.25;;;30.46;66.61
8298;BME280;4187;42.778;23.242;2022-08-16T09:41:39;94938.81;;;30.63;67.69
8298;BME280;4187;42.778;23.242;2022-08-16T09:44:07;94940.97;;;30.76;67.41
8298;BME280;4187;42.778;23.242;2022-08-16T09:46:34;94912.38;;;30.69;65.96
8298;BME280;4187;42.778;23.242;2022-08-16T09:49:03;94925.63;;;30.96;66.02
8298;BME280;4187;42.778;23.242;2022-08-16T09:51:30;94947.66;;;31.14;65.87
8298;BME280;4187;42.778;23.242;2022-08-16T09:53:57;94947.50;;;31.34;64.69
8298;BME280;4187;42.778;23.242;2022-08-16T09:56:32;94937.13;;;31.36;66.87
8298;BME280;4187;42.778;23.242;2022-08-16T09:59:01;94937.34;;;31.45;62.81
8298;BME280;4187;42.778;23.242;2022-08-16T10:01:30;94942.53;;;31.42;63.42
8298;BME280;4187;42.778;23.242;2022-08-16T10:03:57;94942.91;;;31.30;62.78
8298;BME280;4187;42.778;23.242;2022-08-16T10:06:24;94925.56;;;31.11;62.38
8298;BME280;4187;42.778;23.242;2022-08-16T10:08:52;94925.63;;;30.91;65.46
8298;BME280;4187;42.778;23.242;2022-08-16T10:11:19;94931.09;;;30.91;65.58
8298;BME280;4187;42.778;23.242;2022-08-16T10:14:03;94927.34;;;30.76;63.31
8298;BME280;4187;42.778;23.242;2022-08-16T10:16:32;94924.91;;;30.70;62.97
8298;BME280;4187;42.778;23.242;2022-08-16T10:18:58;94916.13;;;30.83;65.32
8298;BME280;4187;42.778;23.242;2022-08-16T10:21:26;94926.19;;;30.98;63.73
8298;BME280;4187;42.778;23.242;2022-08-16T10:23:53;94928.06;;;31.02;63.59
8298;BME280;4187;42.778;23.242;2022-08-16T10:26:20;94925.84;;;31.09;60.93
8298;BME280;4187;42.778;23.242;2022-08-16T10:28:48;94933.09;;;31.29;59.84
8298;BME280;4187;42.778;23.242;2022-08-16T10:31:16;94930.81;;;31.51;58.19
8298;BME280;4187;42.778;23.242;2022-08-16T10:33:44;94890.72;;;31.42;60.56
8298;BME280;4187;42.778;23.242;2022-08-16T10:36:12;94923.00;;;31.73;60.58
8298;BME280;4187;42.778;23.242;2022-08-16T10:38:39;94925.97;;;31.38;58.66
8298;BME280;4187;42.778;23.242;2022-08-16T10:41:07;94938.09;;;31.17;54.92
8298;BME280;4187;42.778;23.242;2022-08-16T10:43:35;94922.47;;;31.27;55.23
8298;BME280;4187;42.778;23.242;2022-08-16T10:46:02;94896.78;;;31.33;58.64
8298;BME280;4187;42.778;23.242;2022-08-16T10:48:29;94911.84;;;31.70;58.36
8298;BME280;4187;42.778;23.242;2022-08-16T10:50:59;94908.59;;;31.68;58.26
8298;BME280;4187;42.778;23.242;2022-08-16T10:53:27;94907.09;;;31.80;62.06
8298;BME280;4187;42.778;23.242;2022-08-16T10:55:54;94907.56;;;31.92;59.11
8298;BME280;4187;42.778;23.242;2022-08-16T10:58:24;94912.25;;;31.87;55.19
8298;BME280;4187;42.778;23.242;2022-08-16T11:00:51;94890.97;;;31.84;54.91
8298;BME280;4187;42.778;23.242;2022-08-16T11:03:18;94908.91;;;32.24;53.92
8298;BME280;4187;42.778;23.242;2022-08-16T11:05:45;94885.63;;;32.31;53.63
8298;BME280;4187;42.778;23.242;2022-08-16T11:08:14;94903.44;;;32.76;52.62
8298;BME280;4187;42.778;23.242;2022-08-16T11:10:44;94902.72;;;32.89;51.90
8298;BME280;4187;42.778;23.242;2022-08-16T11:13:13;94905.38;;;32.94;44.69
8298;BME280;4187;42.778;23.242;2022-08-16T11:15:41;94884.34;;;32.47;45.30
8298;BME280;4187;42.778;23.242;2022-08-16T11:18:09;94898.63;;;32.16;49.73
8298;BME280;4187;42.778;23.242;2022-08-16T11:20:37;94910.28;;;31.92;52.20
8298;BME280;4187;42.778;23.242;2022-08-16T11:23:04;94905.03;;;31.67;51.51
8298;BME280;4187;42.778;23.242;2022-08-16T11:25:33;94909.59;;;31.38;54.38
8298;BME280;4187;42.778;23.242;2022-08-16T11:28:00;94880.16;;;30.86;54.38
8298;BME280;4187;42.778;23.242;2022-08-16T11:30:28;94877.16;;;30.83;58.40
8298;BME280;4187;42.778;23.242;2022-08-16T11:32:56;94903.25;;;31.09;58.36
8298;BME280;4187;42.778;23.242;2022-08-16T11:35:30;94881.19;;;31.05;56.74
8298;BME280;4187;42.778;23.242;2022-08-16T11:38:02;94880.25;;;31.20;58.73
8298;BME280;4187;42.778;23.242;2022-08-16T11:40:34;94886.22;;;31.27;57.63
8298;BME280;4187;42.778;23.242;2022-08-16T11:43:03;94887.56;;;31.29;57.59
8298;BME280;4187;42.778;23.242;2022-08-16T11:45:31;94891.16;;;31.20;60.05
8298;BME280;4187;42.778;23.242;2022-08-16T11:47:58;94864.84;;;31.00;61.04
8298;BME280;4187;42.778;23.242;2022-08-16T11:50:26;94858.31;;;30.91;60.06
8298;BME280;4187;42.778;23.242;2022-08-16T11:52:53;94883.84;;;31.15;60.30
8298;BME280;4187;42.778;23.242;2022-08-16T11:55:20;94883.56;;;31.12;60.69
8298;BME280;4187;42.778;23.242;2022-08-16T11:57:48;94882.47;;;31.13;58.95
8298;BME280;4187;42.778;23.242;2022-08-16T12:00:15;94878.19;;;31.02;60.53
8298;BME280;4187;42.778;23.242;2022-08-16T12:02:42;94870.56;;;30.99;63.38
8298;BME280;4187;42.778;23.242;2022-08-16T12:05:12;94875.09;;;31.18;62.92
8298;BME280;4187;42.778;23.242;2022-08-16T12:07:39;94854.41;;;31.12;58.44
8298;BME280;4187;42.778;23.242;2022-08-16T12:10:10;94871.41;;;31.38;57.49
8298;BME280;4187;42.778;23.242;2022-08-16T12:12:39;94864.47;;;31.56;58.36
8298;BME280;4187;42.778;23.242;2022-08-16T12:15:08;94874.88;;;31.82;55.67
8298;BME280;4187;42.778;23.242;2022-08-16T12:17:35;94861.94;;;31.93;54.25
8298;BME280;4187;42.778;23.242;2022-08-16T12:20:05;94872.47;;;32.10;53.01
8298;BME280;4187;42.778;23.242;2022-08-16T12:22:32;94867.00;;;32.10;52.98
8298;BME280;4187;42.778;23.242;2022-08-16T12:24:59;94873.47;;;32.19;50.50
8298;BME280;4187;42.778;23.242;2022-08-16T12:27:26;94864.22;;;32.15;52.90
8298;BME280;4187;42.778;23.242;2022-08-16T12:29:54;94833.31;;;31.90;49.72
8298;BME280;4187;42.778;23.242;2022-08-16T12:32:27;94852.00;;;32.07;50.50
8298;BME280;4187;42.778;23.242;2022-08-16T12:34:53;94849.53;;;32.11;51.06
8298;BME280;4187;42.778;23.242;2022-08-16T12:37:21;94825.84;;;32.06;51.22
8298;BME280;4187;42.778;23.242;2022-08-16T12:39:49;94848.91;;;32.19;51.32
8298;BME280;4187;42.778;23.242;2022-08-16T12:42:15;94851.75;;;32.32;51.12
8298;BME280;4187;42.778;23.242;2022-08-16T12:44:43;94843.94;;;32.44;48.26
8298;BME280;4187;42.778;23.242;2022-08-16T12:47:10;94839.03;;;32.46;46.99
8298;BME280;4187;42.778;23.242;2022-08-16T12:49:56;94849.34;;;32.55;50.27
8298;BME280;4187;42.778;23.242;2022-08-16T12:52:23;94824.75;;;32.55;46.75
8298;BME280;4187;42.778;23.242;2022-08-16T12:54:51;94841.53;;;32.85;44.58
8298;BME280;4187;42.778;23.242;2022-08-16T12:57:18;94845.81;;;32.91;47.29
8298;BME280;4187;42.778;23.242;2022-08-16T12:59:49;94840.53;;;33.00;47.04
8298;BME280;4187;42.778;23.242;2022-08-16T13:02:16;94839.63;;;33.04;46.52
8298;BME280;4187;42.778;23.242;2022-08-16T13:04:44;94849.09;;;33.12;47.25
8298;BME280;4187;42.778;23.242;2022-08-16T13:07:12;94844.47;;;33.13;44.47
8298;BME280;4187;42.778;23.242;2022-08-16T13:09:40;94842.69;;;33.22;46.87